Spring Creek, South Dakota
Current Conditions -  °F | °C
As of 10:52 PM on Wednesday 22 Oct 2014 (Local Time) from KVTN Reporting Station
Clear Clear  
Wind Chill:   Ceiling: Unl
Heat Index:   Visibility: 10mi
Dew Point:   Wind: 5mph
Humidity: 79%   Direction: 200°SSW
Pressure: 30.05"   Gusts: NA
Location:  43.1381°N, 100.965°W
Report Text: KVTN 230352Z AUTO 20004KT 10SM CLR 07/03 A3005 RMK AO2 SLP182 T00670033
Loading
Personal Weather Stations






























Interactive Weather Map
Tropical Storm Tracking
New forecast layout! Learn more

10-Day Weather Forecast

Advertisements
Track Severe Weather on mobile